Spring Hill, TN (37174)

3:48 AM CDT on April 19, 2015 (GMT -0500)
Kirk Labs | | Change Station
CLOSE
Current Station
Personal Weather Station
Location: Spring Hill, TN
Elevation: 761 ft
Nearby Weather Stations

Elev 761 ft 35.76 °N, 86.88 °W | Updated 9 seconds ago

Rain
Rain
64.6 °F
Feels Like 64.6 °F
N
1.0
Wind Variable Wind from SSE
Gusts 1.0 mph

Today
High -- | Low -- °F
--% Chance of Precip.
Yesterday
High -- | Low -- °F
Precip. -- in
6:09 AM 7:24 PM
New Moon, 0% visible
Pressure 29.74 in
Visibility 5.0 miles
Clouds Few 600 ft
Scattered Clouds 1500 ft
Mostly Cloudy 2300 ft
Dew Point 64 °F
Humidity 97%
Rainfall 0.17 in
Snow Depth Not available.
UV 0 out of 12
Pollen 10.50 out of 12
Air Quality Not available.
Flu Activity Sporadic
METAR KMRC 190835Z AUTO 11003KT 5SM FEW006 SCT015 BKN023 18/00 A2974 RMK

More Conditions Fewer Conditions

Pressure 29.74 in
Visibility 5.0 miles
Clouds Few 600 ft
Scattered Clouds 1500 ft
Mostly Cloudy 2300 ft
Dew Point 64 °F
Humidity 97%
Rainfall 0.17 in
Snow Depth Not available.
UV 0 out of 12
Pollen 10.50 out of 12
Air Quality Not available.
Flu Activity Sporadic
METAR KMRC 190835Z AUTO 11003KT 5SM FEW006 SCT015 BKN023 18/00 A2974 RMK

More Conditions Fewer Conditions

10-Day Weather Forecast

Almanac

Astronomy

Apr. 19, 2015 Rise Set
Actual Time
Civil Twilight
Nautical Twilight
Astronomical Twilight
Moon
Length of Visible Light
Length of Day
Tomorrow will be .
, % of the Moon is Illuminated

Today's Extremes

State Highs State Lows

Community

WunderPhotos

Upload Photos

1,814,723 photos uploaded!

WunderBlogs® & News

Nearby

Air Quality

  Air Quality AQ Index Pollutant
Not available.

Snow Depth

Station Depth Elevation

Earthquake Activity

City Distance Mag. Time & Date
Minimum magnitude displayed is 2.5.

Coastal Water Temperatures

Place Temperature

Stations

Nearby Weather Stations

Station Location Temp. Windchill Dew Point Humidity Wind Precip. Elev Updated Type